sensor_id;sensor_type;location;lat;lon;timestamp;P1;durP1;ratioP1;P2;durP2;ratioP2
62693;SDS011;48759;52.544;13.418;2023-04-24T00:01:53;7.83;;;6.00;;
62693;SDS011;48759;52.544;13.418;2023-04-24T00:04:21;7.27;;;6.20;;
62693;SDS011;48759;52.544;13.418;2023-04-24T00:06:51;6.90;;;6.17;;
62693;SDS011;48759;52.544;13.418;2023-04-24T00:09:22;6.03;;;5.53;;
62693;SDS011;48759;52.544;13.418;2023-04-24T00:11:49;6.70;;;6.03;;
62693;SDS011;48759;52.544;13.418;2023-04-24T00:14:15;6.20;;;5.60;;
62693;SDS011;48759;52.544;13.418;2023-04-24T00:16:42;7.00;;;6.30;;
62693;SDS011;48759;52.544;13.418;2023-04-24T00:19:11;7.13;;;6.43;;
62693;SDS011;48759;52.544;13.418;2023-04-24T00:21:38;6.47;;;5.87;;
62693;SDS011;48759;52.544;13.418;2023-04-24T00:24:05;8.80;;;7.30;;
62693;SDS011;48759;52.544;13.418;2023-04-24T00:26:34;6.70;;;6.10;;
62693;SDS011;48759;52.544;13.418;2023-04-24T00:29:00;6.90;;;6.20;;
62693;SDS011;48759;52.544;13.418;2023-04-24T00:31:27;8.07;;;7.27;;
62693;SDS011;48759;52.544;13.418;2023-04-24T00:33:54;7.03;;;6.37;;
62693;SDS011;48759;52.544;13.418;2023-04-24T00:36:22;6.50;;;5.90;;
62693;SDS011;48759;52.544;13.418;2023-04-24T00:38:49;6.40;;;5.80;;
62693;SDS011;48759;52.544;13.418;2023-04-24T00:41:16;7.87;;;7.07;;
62693;SDS011;48759;52.544;13.418;2023-04-24T00:43:42;7.10;;;6.40;;
62693;SDS011;48759;52.544;13.418;2023-04-24T00:46:10;7.13;;;6.43;;
62693;SDS011;48759;52.544;13.418;2023-04-24T00:48:38;7.87;;;6.00;;
62693;SDS011;48759;52.544;13.418;2023-04-24T00:51:05;7.10;;;6.37;;
62693;SDS011;48759;52.544;13.418;2023-04-24T00:53:34;7.53;;;6.60;;
62693;SDS011;48759;52.544;13.418;2023-04-24T00:56:02;6.90;;;6.30;;
62693;SDS011;48759;52.544;13.418;2023-04-24T00:58:29;7.23;;;6.53;;
62693;SDS011;48759;52.544;13.418;2023-04-24T01:00:57;7.10;;;6.20;;
62693;SDS011;48759;52.544;13.418;2023-04-24T01:03:26;7.50;;;5.70;;
62693;SDS011;48759;52.544;13.418;2023-04-24T01:05:56;8.90;;;7.00;;
62693;SDS011;48759;52.544;13.418;2023-04-24T01:08:24;7.50;;;6.50;;
62693;SDS011;48759;52.544;13.418;2023-04-24T01:10:54;8.07;;;6.77;;
62693;SDS011;48759;52.544;13.418;2023-04-24T01:13:23;7.20;;;6.47;;
62693;SDS011;48759;52.544;13.418;2023-04-24T01:15:50;7.43;;;6.70;;
62693;SDS011;48759;52.544;13.418;2023-04-24T01:18:18;8.07;;;7.00;;
62693;SDS011;48759;52.544;13.418;2023-04-24T01:20:46;6.77;;;6.00;;
62693;SDS011;48759;52.544;13.418;2023-04-24T01:23:15;6.60;;;5.90;;
62693;SDS011;48759;52.544;13.418;2023-04-24T01:25:42;7.40;;;6.17;;
62693;SDS011;48759;52.544;13.418;2023-04-24T01:28:09;6.70;;;5.83;;
62693;SDS011;48759;52.544;13.418;2023-04-24T01:30:36;7.03;;;6.27;;
62693;SDS011;48759;52.544;13.418;2023-04-24T01:33:03;8.50;;;6.67;;
62693;SDS011;48759;52.544;13.418;2023-04-24T01:35:30;7.80;;;7.00;;
62693;SDS011;48759;52.544;13.418;2023-04-24T01:37:56;7.37;;;6.40;;
62693;SDS011;48759;52.544;13.418;2023-04-24T01:40:25;7.10;;;6.40;;
62693;SDS011;48759;52.544;13.418;2023-04-24T01:42:52;8.60;;;6.80;;
62693;SDS011;48759;52.544;13.418;2023-04-24T01:45:18;7.20;;;6.37;;
62693;SDS011;48759;52.544;13.418;2023-04-24T01:47:45;7.43;;;6.50;;
62693;SDS011;48759;52.544;13.418;2023-04-24T01:50:14;6.93;;;6.33;;
62693;SDS011;48759;52.544;13.418;2023-04-24T01:52:41;7.40;;;6.70;;
62693;SDS011;48759;52.544;13.418;2023-04-24T01:55:08;7.40;;;6.60;;
62693;SDS011;48759;52.544;13.418;2023-04-24T01:57:37;8.43;;;7.03;;
62693;SDS011;48759;52.544;13.418;2023-04-24T02:00:05;7.50;;;6.80;;
62693;SDS011;48759;52.544;13.418;2023-04-24T02:02:33;6.80;;;6.13;;
62693;SDS011;48759;52.544;13.418;2023-04-24T02:05:00;7.27;;;6.60;;
62693;SDS011;48759;52.544;13.418;2023-04-24T02:07:27;8.37;;;6.90;;
62693;SDS011;48759;52.544;13.418;2023-04-24T02:09:54;7.53;;;6.83;;
62693;SDS011;48759;52.544;13.418;2023-04-24T02:12:21;9.10;;;6.67;;
62693;SDS011;48759;52.544;13.418;2023-04-24T02:14:49;8.07;;;6.93;;
62693;SDS011;48759;52.544;13.418;2023-04-24T02:17:16;12.20;;;7.70;;
62693;SDS011;48759;52.544;13.418;2023-04-24T02:19:45;8.70;;;7.63;;
62693;SDS011;48759;52.544;13.418;2023-04-24T02:22:11;8.57;;;7.67;;
62693;SDS011;48759;52.544;13.418;2023-04-24T02:24:38;7.20;;;6.50;;
62693;SDS011;48759;52.544;13.418;2023-04-24T02:27:07;8.30;;;7.33;;
62693;SDS011;48759;52.544;13.418;2023-04-24T02:29:34;9.03;;;7.80;;
62693;SDS011;48759;52.544;13.418;2023-04-24T02:32:02;7.77;;;7.07;;
62693;SDS011;48759;52.544;13.418;2023-04-24T02:34:28;8.43;;;7.60;;
62693;SDS011;48759;52.544;13.418;2023-04-24T02:36:55;8.70;;;8.00;;
62693;SDS011;48759;52.544;13.418;2023-04-24T02:39:22;7.37;;;6.77;;
62693;SDS011;48759;52.544;13.418;2023-04-24T02:41:49;8.70;;;7.90;;
62693;SDS011;48759;52.544;13.418;2023-04-24T02:44:15;8.53;;;7.73;;
62693;SDS011;48759;52.544;13.418;2023-04-24T02:46:43;15.93;;;7.70;;
62693;SDS011;48759;52.544;13.418;2023-04-24T02:49:11;10.73;;;7.50;;
62693;SDS011;48759;52.544;13.418;2023-04-24T02:51:38;9.27;;;8.23;;
62693;SDS011;48759;52.544;13.418;2023-04-24T02:54:06;7.90;;;7.10;;
62693;SDS011;48759;52.544;13.418;2023-04-24T02:56:34;8.20;;;7.37;;
62693;SDS011;48759;52.544;13.418;2023-04-24T02:59:01;8.17;;;7.20;;
62693;SDS011;48759;52.544;13.418;2023-04-24T03:01:31;11.03;;;7.53;;
62693;SDS011;48759;52.544;13.418;2023-04-24T03:03:58;8.80;;;7.90;;
62693;SDS011;48759;52.544;13.418;2023-04-24T03:06:26;9.03;;;7.37;;
62693;SDS011;48759;52.544;13.418;2023-04-24T03:08:53;9.57;;;8.57;;
62693;SDS011;48759;52.544;13.418;2023-04-24T03:11:21;9.67;;;8.13;;
62693;SDS011;48759;52.544;13.418;2023-04-24T03:13:48;10.00;;;7.73;;
62693;SDS011;48759;52.544;13.418;2023-04-24T03:16:15;8.53;;;7.67;;
62693;SDS011;48759;52.544;13.418;2023-04-24T03:18:41;11.67;;;7.67;;
62693;SDS011;48759;52.544;13.418;2023-04-24T03:21:08;8.90;;;8.00;;
62693;SDS011;48759;52.544;13.418;2023-04-24T03:23:36;12.37;;;7.30;;
62693;SDS011;48759;52.544;13.418;2023-04-24T03:26:03;8.70;;;7.80;;
62693;SDS011;48759;52.544;13.418;2023-04-24T03:28:30;7.97;;;7.00;;
62693;SDS011;48759;52.544;13.418;2023-04-24T03:30:57;9.23;;;8.33;;
62693;SDS011;48759;52.544;13.418;2023-04-24T03:33:23;9.77;;;7.93;;
62693;SDS011;48759;52.544;13.418;2023-04-24T03:35:50;9.10;;;8.20;;
62693;SDS011;48759;52.544;13.418;2023-04-24T03:38:17;9.93;;;8.00;;
62693;SDS011;48759;52.544;13.418;2023-04-24T03:40:46;9.03;;;7.73;;
62693;SDS011;48759;52.544;13.418;2023-04-24T03:43:12;9.67;;;8.17;;
62693;SDS011;48759;52.544;13.418;2023-04-24T03:45:39;10.43;;;8.20;;
62693;SDS011;48759;52.544;13.418;2023-04-24T03:48:06;10.23;;;7.90;;
62693;SDS011;48759;52.544;13.418;2023-04-24T03:50:33;9.30;;;8.10;;
62693;SDS011;48759;52.544;13.418;2023-04-24T03:53:00;8.73;;;7.07;;
62693;SDS011;48759;52.544;13.418;2023-04-24T03:55:28;11.10;;;8.10;;
62693;SDS011;48759;52.544;13.418;2023-04-24T03:57:56;9.00;;;7.87;;
62693;SDS011;48759;52.544;13.418;2023-04-24T04:00:23;8.77;;;7.47;;
62693;SDS011;48759;52.544;13.418;2023-04-24T04:02:51;8.23;;;7.40;;
62693;SDS011;48759;52.544;13.418;2023-04-24T04:05:17;9.53;;;6.97;;
62693;SDS011;48759;52.544;13.418;2023-04-24T04:07:44;10.50;;;7.77;;
62693;SDS011;48759;52.544;13.418;2023-04-24T04:10:11;7.80;;;7.10;;
62693;SDS011;48759;52.544;13.418;2023-04-24T04:12:38;9.37;;;7.57;;
62693;SDS011;48759;52.544;13.418;2023-04-24T04:15:07;8.10;;;7.30;;
62693;SDS011;48759;52.544;13.418;2023-04-24T04:17:34;8.23;;;7.43;;
62693;SDS011;48759;52.544;13.418;2023-04-24T04:20:03;8.53;;;7.63;;
62693;SDS011;48759;52.544;13.418;2023-04-24T04:22:34;8.63;;;7.70;;
62693;SDS011;48759;52.544;13.418;2023-04-24T04:25:01;7.40;;;6.70;;
62693;SDS011;48759;52.544;13.418;2023-04-24T04:27:29;7.83;;;7.10;;
62693;SDS011;48759;52.544;13.418;2023-04-24T04:29:57;7.70;;;7.00;;
62693;SDS011;48759;52.544;13.418;2023-04-24T04:32:25;8.20;;;6.70;;
62693;SDS011;48759;52.544;13.418;2023-04-24T04:34:52;8.67;;;6.53;;
62693;SDS011;48759;52.544;13.418;2023-04-24T04:37:19;8.77;;;7.20;;
62693;SDS011;48759;52.544;13.418;2023-04-24T04:39:46;7.70;;;6.80;;
62693;SDS011;48759;52.544;13.418;2023-04-24T04:42:13;7.80;;;7.00;;
62693;SDS011;48759;52.544;13.418;2023-04-24T04:44:40;8.17;;;6.97;;
62693;SDS011;48759;52.544;13.418;2023-04-24T04:47:07;8.20;;;6.80;;
62693;SDS011;48759;52.544;13.418;2023-04-24T04:49:37;9.27;;;7.40;;
62693;SDS011;48759;52.544;13.418;2023-04-24T04:52:04;8.90;;;7.10;;
62693;SDS011;48759;52.544;13.418;2023-04-24T04:54:31;8.47;;;6.57;;
62693;SDS011;48759;52.544;13.418;2023-04-24T04:56:58;9.30;;;6.60;;
62693;SDS011;48759;52.544;13.418;2023-04-24T04:59:25;8.33;;;6.90;;
62693;SDS011;48759;52.544;13.418;2023-04-24T05:01:52;8.03;;;7.03;;
62693;SDS011;48759;52.544;13.418;2023-04-24T05:04:19;8.67;;;6.60;;
62693;SDS011;48759;52.544;13.418;2023-04-24T05:06:47;8.40;;;6.60;;
62693;SDS011;48759;52.544;13.418;2023-04-24T05:09:17;7.30;;;6.57;;
62693;SDS011;48759;52.544;13.418;2023-04-24T05:11:44;7.30;;;6.60;;
62693;SDS011;48759;52.544;13.418;2023-04-24T05:14:10;9.73;;;6.80;;
62693;SDS011;48759;52.544;13.418;2023-04-24T05:16:38;7.20;;;5.77;;
62693;SDS011;48759;52.544;13.418;2023-04-24T05:19:06;9.87;;;5.90;;
62693;SDS011;48759;52.544;13.418;2023-04-24T05:21:33;8.27;;;6.23;;
62693;SDS011;48759;52.544;13.418;2023-04-24T05:24:01;10.93;;;5.87;;
62693;SDS011;48759;52.544;13.418;2023-04-24T05:26:28;7.70;;;5.20;;
62693;SDS011;48759;52.544;13.418;2023-04-24T05:28:55;6.30;;;5.57;;
62693;SDS011;48759;52.544;13.418;2023-04-24T05:31:21;7.93;;;5.00;;
62693;SDS011;48759;52.544;13.418;2023-04-24T05:33:49;6.00;;;5.40;;
62693;SDS011;48759;52.544;13.418;2023-04-24T05:36:16;6.90;;;5.60;;
62693;SDS011;48759;52.544;13.418;2023-04-24T05:38:52;5.90;;;5.00;;
62693;SDS011;48759;52.544;13.418;2023-04-24T05:41:20;5.73;;;4.80;;
62693;SDS011;48759;52.544;13.418;2023-04-24T05:43:47;6.47;;;4.63;;
62693;SDS011;48759;52.544;13.418;2023-04-24T05:46:14;4.47;;;4.10;;
62693;SDS011;48759;52.544;13.418;2023-04-24T05:48:41;5.77;;;4.63;;
62693;SDS011;48759;52.544;13.418;2023-04-24T05:51:08;4.87;;;4.47;;
62693;SDS011;48759;52.544;13.418;2023-04-24T05:53:35;7.13;;;4.37;;
62693;SDS011;48759;52.544;13.418;2023-04-24T05:56:02;4.13;;;3.77;;
62693;SDS011;48759;52.544;13.418;2023-04-24T05:58:30;5.30;;;4.00;;
62693;SDS011;48759;52.544;13.418;2023-04-24T06:00:57;5.03;;;4.03;;
62693;SDS011;48759;52.544;13.418;2023-04-24T06:03:26;6.37;;;3.87;;
62693;SDS011;48759;52.544;13.418;2023-04-24T06:05:56;3.70;;;3.30;;
62693;SDS011;48759;52.544;13.418;2023-04-24T06:08:23;4.30;;;3.80;;
62693;SDS011;48759;52.544;13.418;2023-04-24T06:10:51;7.00;;;3.57;;
62693;SDS011;48759;52.544;13.418;2023-04-24T06:13:17;5.03;;;3.93;;
62693;SDS011;48759;52.544;13.418;2023-04-24T06:15:46;3.80;;;3.07;;
62693;SDS011;48759;52.544;13.418;2023-04-24T06:18:12;3.37;;;3.07;;
62693;SDS011;48759;52.544;13.418;2023-04-24T06:20:39;5.77;;;4.00;;
62693;SDS011;48759;52.544;13.418;2023-04-24T06:23:08;5.00;;;3.90;;
62693;SDS011;48759;52.544;13.418;2023-04-24T06:25:35;10.00;;;5.00;;
62693;SDS011;48759;52.544;13.418;2023-04-24T06:28:03;6.90;;;3.43;;
62693;SDS011;48759;52.544;13.418;2023-04-24T06:30:30;5.50;;;3.67;;
62693;SDS011;48759;52.544;13.418;2023-04-24T06:32:59;5.43;;;4.03;;
62693;SDS011;48759;52.544;13.418;2023-04-24T06:35:25;3.47;;;3.17;;
62693;SDS011;48759;52.544;13.418;2023-04-24T06:37:52;3.33;;;3.03;;
62693;SDS011;48759;52.544;13.418;2023-04-24T06:40:21;4.17;;;2.90;;
62693;SDS011;48759;52.544;13.418;2023-04-24T06:42:47;5.70;;;3.47;;
62693;SDS011;48759;52.544;13.418;2023-04-24T06:45:15;4.17;;;2.60;;
62693;SDS011;48759;52.544;13.418;2023-04-24T06:47:41;4.90;;;2.53;;
62693;SDS011;48759;52.544;13.418;2023-04-24T06:50:10;7.30;;;3.77;;
62693;SDS011;48759;52.544;13.418;2023-04-24T06:52:37;2.90;;;2.43;;
62693;SDS011;48759;52.544;13.418;2023-04-24T06:55:04;3.40;;;2.80;;
62693;SDS011;48759;52.544;13.418;2023-04-24T06:57:31;5.60;;;2.53;;
62693;SDS011;48759;52.544;13.418;2023-04-24T06:59:58;2.90;;;2.60;;
62693;SDS011;48759;52.544;13.418;2023-04-24T07:02:25;2.60;;;2.40;;
62693;SDS011;48759;52.544;13.418;2023-04-24T07:04:51;2.60;;;2.40;;
62693;SDS011;48759;52.544;13.418;2023-04-24T07:07:20;2.60;;;2.40;;
62693;SDS011;48759;52.544;13.418;2023-04-24T07:09:46;3.20;;;2.20;;
62693;SDS011;48759;52.544;13.418;2023-04-24T07:12:13;2.83;;;2.37;;
62693;SDS011;48759;52.544;13.418;2023-04-24T07:14:42;2.53;;;2.00;;
62693;SDS011;48759;52.544;13.418;2023-04-24T07:17:08;2.40;;;2.20;;
62693;SDS011;48759;52.544;13.418;2023-04-24T07:19:35;2.50;;;2.10;;
62693;SDS011;48759;52.544;13.418;2023-04-24T07:22:01;2.90;;;1.77;;
62693;SDS011;48759;52.544;13.418;2023-04-24T07:24:30;1.53;;;1.43;;
62693;SDS011;48759;52.544;13.418;2023-04-24T07:26:57;3.87;;;1.77;;
62693;SDS011;48759;52.544;13.418;2023-04-24T07:29:26;1.77;;;1.67;;
62693;SDS011;48759;52.544;13.418;2023-04-24T07:31:53;1.50;;;1.40;;
62693;SDS011;48759;52.544;13.418;2023-04-24T07:34:19;3.27;;;2.13;;
62693;SDS011;48759;52.544;13.418;2023-04-24T07:36:46;1.50;;;1.40;;
62693;SDS011;48759;52.544;13.418;2023-04-24T07:39:13;1.73;;;1.60;;
62693;SDS011;48759;52.544;13.418;2023-04-24T07:41:41;1.70;;;1.60;;
62693;SDS011;48759;52.544;13.418;2023-04-24T07:44:08;1.63;;;1.53;;
62693;SDS011;48759;52.544;13.418;2023-04-24T07:46:35;2.13;;;1.40;;
62693;SDS011;48759;52.544;13.418;2023-04-24T07:49:01;1.40;;;1.30;;
62693;SDS011;48759;52.544;13.418;2023-04-24T07:51:29;2.00;;;1.90;;
62693;SDS011;48759;52.544;13.418;2023-04-24T07:53:57;1.40;;;1.30;;
62693;SDS011;48759;52.544;13.418;2023-04-24T07:56:24;1.30;;;1.20;;
62693;SDS011;48759;52.544;13.418;2023-04-24T07:58:52;1.93;;;1.60;;
62693;SDS011;48759;52.544;13.418;2023-04-24T08:01:19;1.50;;;1.40;;
62693;SDS011;48759;52.544;13.418;2023-04-24T08:03:45;1.83;;;1.50;;
62693;SDS011;48759;52.544;13.418;2023-04-24T08:06:12;2.27;;;1.33;;
62693;SDS011;48759;52.544;13.418;2023-04-24T08:08:39;1.80;;;1.70;;
62693;SDS011;48759;52.544;13.418;2023-04-24T08:11:06;2.20;;;1.33;;
62693;SDS011;48759;52.544;13.418;2023-04-24T08:13:32;1.60;;;1.50;;
62693;SDS011;48759;52.544;13.418;2023-04-24T08:16:00;4.73;;;1.70;;
62693;SDS011;48759;52.544;13.418;2023-04-24T08:18:27;1.80;;;1.70;;
62693;SDS011;48759;52.544;13.418;2023-04-24T08:20:55;2.33;;;1.53;;
62693;SDS011;48759;52.544;13.418;2023-04-24T08:23:26;1.43;;;1.33;;
62693;SDS011;48759;52.544;13.418;2023-04-24T08:25:53;1.70;;;1.53;;
62693;SDS011;48759;52.544;13.418;2023-04-24T08:28:20;1.80;;;1.70;;
62693;SDS011;48759;52.544;13.418;2023-04-24T08:30:48;2.70;;;1.50;;
62693;SDS011;48759;52.544;13.418;2023-04-24T08:33:23;1.33;;;1.23;;
62693;SDS011;48759;52.544;13.418;2023-04-24T08:35:50;2.37;;;1.30;;
62693;SDS011;48759;52.544;13.418;2023-04-24T08:38:20;1.83;;;1.73;;
62693;SDS011;48759;52.544;13.418;2023-04-24T08:40:47;2.33;;;2.13;;
62693;SDS011;48759;52.544;13.418;2023-04-24T08:43:14;1.93;;;1.40;;
62693;SDS011;48759;52.544;13.418;2023-04-24T08:45:42;1.77;;;1.30;;
62693;SDS011;48759;52.544;13.418;2023-04-24T08:48:09;2.20;;;1.50;;
62693;SDS011;48759;52.544;13.418;2023-04-24T08:50:37;1.80;;;1.50;;
62693;SDS011;48759;52.544;13.418;2023-04-24T08:53:06;1.87;;;1.20;;
62693;SDS011;48759;52.544;13.418;2023-04-24T08:55:34;1.87;;;1.37;;
62693;SDS011;48759;52.544;13.418;2023-04-24T08:58:02;1.60;;;1.50;;
62693;SDS011;48759;52.544;13.418;2023-04-24T09:00:29;1.73;;;1.27;;
62693;SDS011;48759;52.544;13.418;2023-04-24T09:02:56;1.97;;;1.57;;
62693;SDS011;48759;52.544;13.418;2023-04-24T09:05:26;1.97;;;1.40;;
62693;SDS011;48759;52.544;13.418;2023-04-24T09:07:56;1.47;;;1.30;;
62693;SDS011;48759;52.544;13.418;2023-04-24T09:10:24;1.50;;;1.40;;
62693;SDS011;48759;52.544;13.418;2023-04-24T09:12:51;2.40;;;1.33;;
62693;SDS011;48759;52.544;13.418;2023-04-24T09:15:19;2.23;;;1.20;;
62693;SDS011;48759;52.544;13.418;2023-04-24T09:17:46;1.33;;;1.10;;
62693;SDS011;48759;52.544;13.418;2023-04-24T09:20:13;1.33;;;1.23;;
62693;SDS011;48759;52.544;13.418;2023-04-24T09:22:40;1.50;;;1.40;;
62693;SDS011;48759;52.544;13.418;2023-04-24T09:25:10;2.33;;;1.50;;
62693;SDS011;48759;52.544;13.418;2023-04-24T09:27:41;1.50;;;1.40;;
62693;SDS011;48759;52.544;13.418;2023-04-24T09:30:10;3.83;;;1.53;;
62693;SDS011;48759;52.544;13.418;2023-04-24T09:32:37;1.37;;;1.27;;
62693;SDS011;48759;52.544;13.418;2023-04-24T09:35:07;1.50;;;1.40;;
62693;SDS011;48759;52.544;13.418;2023-04-24T09:37:36;2.40;;;1.77;;
62693;SDS011;48759;52.544;13.418;2023-04-24T09:40:12;1.60;;;1.50;;
62693;SDS011;48759;52.544;13.418;2023-04-24T09:42:43;2.40;;;1.60;;
62693;SDS011;48759;52.544;13.418;2023-04-24T09:45:13;2.60;;;1.80;;
62693;SDS011;48759;52.544;13.418;2023-04-24T09:47:40;1.80;;;1.70;;
62693;SDS011;48759;52.544;13.418;2023-04-24T09:50:11;3.40;;;1.80;;
62693;SDS011;48759;52.544;13.418;2023-04-24T09:52:40;5.30;;;2.17;;
62693;SDS011;48759;52.544;13.418;2023-04-24T09:55:18;3.33;;;1.77;;
62693;SDS011;48759;52.544;13.418;2023-04-24T09:57:50;2.23;;;1.60;;
62693;SDS011;48759;52.544;13.418;2023-04-24T10:00:18;3.73;;;1.70;;
62693;SDS011;48759;52.544;13.418;2023-04-24T10:02:49;1.90;;;1.80;;
62693;SDS011;48759;52.544;13.418;2023-04-24T10:05:18;1.50;;;1.30;;
62693;SDS011;48759;52.544;13.418;2023-04-24T10:07:44;2.93;;;1.60;;
62693;SDS011;48759;52.544;13.418;2023-04-24T10:10:11;3.90;;;1.40;;
62693;SDS011;48759;52.544;13.418;2023-04-24T10:12:41;3.73;;;1.90;;
62693;SDS011;48759;52.544;13.418;2023-04-24T10:15:10;2.97;;;1.50;;
62693;SDS011;48759;52.544;13.418;2023-04-24T10:17:38;1.80;;;1.70;;
62693;SDS011;48759;52.544;13.418;2023-04-24T10:20:06;1.20;;;1.10;;
62693;SDS011;48759;52.544;13.418;2023-04-24T10:22:33;3.53;;;1.70;;
62693;SDS011;48759;52.544;13.418;2023-04-24T10:25:03;1.67;;;1.47;;
62693;SDS011;48759;52.544;13.418;2023-04-24T10:27:31;2.00;;;1.70;;
62693;SDS011;48759;52.544;13.418;2023-04-24T10:30:00;2.50;;;1.40;;
62693;SDS011;48759;52.544;13.418;2023-04-24T10:32:27;3.13;;;1.30;;
62693;SDS011;48759;52.544;13.418;2023-04-24T10:34:55;2.00;;;1.80;;
62693;SDS011;48759;52.544;13.418;2023-04-24T10:37:22;3.93;;;2.40;;
62693;SDS011;48759;52.544;13.418;2023-04-24T10:39:50;5.50;;;2.13;;
62693;SDS011;48759;52.544;13.418;2023-04-24T10:42:19;1.70;;;1.50;;
62693;SDS011;48759;52.544;13.418;2023-04-24T10:44:47;1.83;;;1.73;;
62693;SDS011;48759;52.544;13.418;2023-04-24T10:47:17;4.60;;;2.20;;
62693;SDS011;48759;52.544;13.418;2023-04-24T10:49:44;3.37;;;2.07;;
62693;SDS011;48759;52.544;13.418;2023-04-24T10:52:14;3.87;;;2.20;;
62693;SDS011;48759;52.544;13.418;2023-04-24T10:54:44;1.83;;;1.73;;
62693;SDS011;48759;52.544;13.418;2023-04-24T10:57:27;5.97;;;2.17;;
62693;SDS011;48759;52.544;13.418;2023-04-24T11:00:10;2.73;;;1.73;;
62693;SDS011;48759;52.544;13.418;2023-04-24T11:02:42;2.17;;;1.50;;
62693;SDS011;48759;52.544;13.418;2023-04-24T11:05:14;2.77;;;1.70;;
62693;SDS011;48759;52.544;13.418;2023-04-24T11:10:37;2.93;;;1.87;;
62693;SDS011;48759;52.544;13.418;2023-04-24T11:13:05;2.33;;;1.77;;
62693;SDS011;48759;52.544;13.418;2023-04-24T11:15:33;2.17;;;1.97;;
62693;SDS011;48759;52.544;13.418;2023-04-24T11:18:02;3.00;;;2.53;;
62693;SDS011;48759;52.544;13.418;2023-04-24T11:20:29;4.20;;;1.63;;
62693;SDS011;48759;52.544;13.418;2023-04-24T11:23:00;5.57;;;2.43;;
62693;SDS011;48759;52.544;13.418;2023-04-24T11:25:31;2.33;;;1.70;;
62693;SDS011;48759;52.544;13.418;2023-04-24T11:28:02;1.60;;;1.50;;
62693;SDS011;48759;52.544;13.418;2023-04-24T11:30:32;1.60;;;1.50;;
62693;SDS011;48759;52.544;13.418;2023-04-24T11:33:03;1.60;;;1.50;;
62693;SDS011;48759;52.544;13.418;2023-04-24T11:35:35;2.13;;;1.90;;
62693;SDS011;48759;52.544;13.418;2023-04-24T11:38:05;2.57;;;1.97;;
62693;SDS011;48759;52.544;13.418;2023-04-24T11:40:33;2.70;;;2.50;;
62693;SDS011;48759;52.544;13.418;2023-04-24T11:43:00;2.87;;;2.50;;
62693;SDS011;48759;52.544;13.418;2023-04-24T11:45:27;2.30;;;1.77;;
62693;SDS011;48759;52.544;13.418;2023-04-24T11:47:56;3.53;;;2.13;;
62693;SDS011;48759;52.544;13.418;2023-04-24T11:50:25;7.13;;;2.20;;
62693;SDS011;48759;52.544;13.418;2023-04-24T11:52:54;2.83;;;2.17;;
62693;SDS011;48759;52.544;13.418;2023-04-24T11:55:26;5.47;;;1.73;;
62693;SDS011;48759;52.544;13.418;2023-04-24T11:57:54;5.20;;;1.70;;
62693;SDS011;48759;52.544;13.418;2023-04-24T12:00:24;2.03;;;1.20;;
62693;SDS011;48759;52.544;13.418;2023-04-24T12:03:02;2.60;;;1.50;;
62693;SDS011;48759;52.544;13.418;2023-04-24T12:05:32;1.77;;;1.50;;
62693;SDS011;48759;52.544;13.418;2023-04-24T12:08:00;1.70;;;1.43;;
62693;SDS011;48759;52.544;13.418;2023-04-24T12:10:27;3.23;;;2.27;;
62693;SDS011;48759;52.544;13.418;2023-04-24T12:12:55;1.70;;;1.60;;
62693;SDS011;48759;52.544;13.418;2023-04-24T12:15:23;4.07;;;1.67;;
62693;SDS011;48759;52.544;13.418;2023-04-24T12:17:50;4.87;;;1.80;;
62693;SDS011;48759;52.544;13.418;2023-04-24T12:20:23;2.60;;;1.73;;
62693;SDS011;48759;52.544;13.418;2023-04-24T12:22:53;3.00;;;2.20;;
62693;SDS011;48759;52.544;13.418;2023-04-24T12:25:21;2.03;;;1.80;;
62693;SDS011;48759;52.544;13.418;2023-04-24T12:27:52;5.17;;;1.60;;
62693;SDS011;48759;52.544;13.418;2023-04-24T12:30:25;3.07;;;2.00;;
62693;SDS011;48759;52.544;13.418;2023-04-24T12:32:54;3.37;;;2.10;;
62693;SDS011;48759;52.544;13.418;2023-04-24T12:35:21;4.43;;;2.23;;
62693;SDS011;48759;52.544;13.418;2023-04-24T12:37:49;4.27;;;2.30;;
62693;SDS011;48759;52.544;13.418;2023-04-24T12:40:18;3.33;;;2.00;;
62693;SDS011;48759;52.544;13.418;2023-04-24T12:42:47;2.47;;;1.90;;
62693;SDS011;48759;52.544;13.418;2023-04-24T12:45:15;3.77;;;1.80;;
62693;SDS011;48759;52.544;13.418;2023-04-24T12:47:44;2.07;;;1.87;;
62693;SDS011;48759;52.544;13.418;2023-04-24T12:50:12;1.93;;;1.83;;
62693;SDS011;48759;52.544;13.418;2023-04-24T12:52:41;3.80;;;1.53;;
62693;SDS011;48759;52.544;13.418;2023-04-24T12:55:09;2.00;;;1.50;;
62693;SDS011;48759;52.544;13.418;2023-04-24T12:57:38;3.30;;;1.83;;
62693;SDS011;48759;52.544;13.418;2023-04-24T13:00:06;7.03;;;1.40;;
62693;SDS011;48759;52.544;13.418;2023-04-24T13:02:36;1.63;;;1.40;;
62693;SDS011;48759;52.544;13.418;2023-04-24T13:05:03;3.73;;;2.13;;
62693;SDS011;48759;52.544;13.418;2023-04-24T13:07:29;3.40;;;2.10;;
62693;SDS011;48759;52.544;13.418;2023-04-24T13:09:56;6.10;;;2.70;;
62693;SDS011;48759;52.544;13.418;2023-04-24T13:12:26;2.73;;;1.50;;
62693;SDS011;48759;52.544;13.418;2023-04-24T13:14:54;3.23;;;1.70;;
62693;SDS011;48759;52.544;13.418;2023-04-24T13:17:22;3.10;;;2.20;;
62693;SDS011;48759;52.544;13.418;2023-04-24T13:19:53;5.47;;;2.10;;
62693;SDS011;48759;52.544;13.418;2023-04-24T13:22:21;4.83;;;1.43;;
62693;SDS011;48759;52.544;13.418;2023-04-24T13:24:47;2.30;;;1.70;;
62693;SDS011;48759;52.544;13.418;2023-04-24T13:27:15;2.50;;;2.10;;
62693;SDS011;48759;52.544;13.418;2023-04-24T13:29:42;1.70;;;1.60;;
62693;SDS011;48759;52.544;13.418;2023-04-24T13:32:11;4.60;;;2.83;;
62693;SDS011;48759;52.544;13.418;2023-04-24T13:34:38;3.17;;;2.87;;
62693;SDS011;48759;52.544;13.418;2023-04-24T13:37:05;4.10;;;3.60;;
62693;SDS011;48759;52.544;13.418;2023-04-24T13:39:33;2.20;;;2.10;;
62693;SDS011;48759;52.544;13.418;2023-04-24T13:42:00;3.13;;;1.80;;
62693;SDS011;48759;52.544;13.418;2023-04-24T13:44:26;2.20;;;2.00;;
62693;SDS011;48759;52.544;13.418;2023-04-24T13:46:54;4.70;;;2.17;;
62693;SDS011;48759;52.544;13.418;2023-04-24T13:49:23;3.40;;;2.53;;
62693;SDS011;48759;52.544;13.418;2023-04-24T13:51:51;4.93;;;2.13;;
62693;SDS011;48759;52.544;13.418;2023-04-24T13:54:19;1.80;;;1.70;;
62693;SDS011;48759;52.544;13.418;2023-04-24T13:56:48;1.90;;;1.63;;
62693;SDS011;48759;52.544;13.418;2023-04-24T13:59:15;1.87;;;1.77;;
62693;SDS011;48759;52.544;13.418;2023-04-24T14:01:42;4.00;;;3.33;;
62693;SDS011;48759;52.544;13.418;2023-04-24T14:04:10;6.23;;;2.03;;
62693;SDS011;48759;52.544;13.418;2023-04-24T14:06:38;2.63;;;2.43;;
62693;SDS011;48759;52.544;13.418;2023-04-24T14:09:06;3.70;;;2.60;;
62693;SDS011;48759;52.544;13.418;2023-04-24T14:11:33;7.20;;;2.60;;
62693;SDS011;48759;52.544;13.418;2023-04-24T14:14:00;2.53;;;2.33;;
62693;SDS011;48759;52.544;13.418;2023-04-24T14:16:27;6.57;;;5.07;;
62693;SDS011;48759;52.544;13.418;2023-04-24T14:18:55;3.37;;;3.07;;
62693;SDS011;48759;52.544;13.418;2023-04-24T14:21:23;4.63;;;2.50;;
62693;SDS011;48759;52.544;13.418;2023-04-24T14:23:56;2.17;;;2.07;;
62693;SDS011;48759;52.544;13.418;2023-04-24T14:26:23;3.57;;;2.40;;
62693;SDS011;48759;52.544;13.418;2023-04-24T14:28:50;4.43;;;2.27;;
62693;SDS011;48759;52.544;13.418;2023-04-24T14:31:18;4.07;;;2.60;;
62693;SDS011;48759;52.544;13.418;2023-04-24T14:33:44;3.50;;;2.57;;
62693;SDS011;48759;52.544;13.418;2023-04-24T14:36:12;2.10;;;1.70;;
62693;SDS011;48759;52.544;13.418;2023-04-24T14:38:40;2.30;;;2.07;;
62693;SDS011;48759;52.544;13.418;2023-04-24T14:41:08;3.40;;;3.00;;